sensor_id;sensor_type;location;lat;lon;timestamp;P1;durP1;ratioP1;P2;durP2;ratioP2
36189;SDS011;22232;50.914;13.858;2024-02-16T00:01:09;8.80;;;5.28;;
36189;SDS011;22232;50.914;13.858;2024-02-16T00:03:37;8.90;;;4.82;;
36189;SDS011;22232;50.914;13.858;2024-02-16T00:06:04;10.32;;;4.95;;
36189;SDS011;22232;50.914;13.858;2024-02-16T00:08:32;6.38;;;4.70;;
36189;SDS011;22232;50.914;13.858;2024-02-16T00:11:01;9.10;;;4.63;;
36189;SDS011;22232;50.914;13.858;2024-02-16T00:13:30;6.72;;;4.30;;
36189;SDS011;22232;50.914;13.858;2024-02-16T00:15:57;7.80;;;4.05;;
36189;SDS011;22232;50.914;13.858;2024-02-16T00:18:25;7.32;;;4.55;;
36189;SDS011;22232;50.914;13.858;2024-02-16T00:20:53;8.48;;;4.22;;
36189;SDS011;22232;50.914;13.858;2024-02-16T00:23:21;9.20;;;4.15;;
36189;SDS011;22232;50.914;13.858;2024-02-16T00:25:49;6.47;;;4.32;;
36189;SDS011;22232;50.914;13.858;2024-02-16T00:28:17;10.00;;;4.95;;
36189;SDS011;22232;50.914;13.858;2024-02-16T00:30:46;12.48;;;4.93;;
36189;SDS011;22232;50.914;13.858;2024-02-16T00:33:14;8.55;;;5.07;;
36189;SDS011;22232;50.914;13.858;2024-02-16T00:35:41;8.63;;;5.70;;
36189;SDS011;22232;50.914;13.858;2024-02-16T00:38:09;12.35;;;5.68;;
36189;SDS011;22232;50.914;13.858;2024-02-16T00:40:36;9.70;;;5.95;;
36189;SDS011;22232;50.914;13.858;2024-02-16T00:45:37;13.13;;;7.60;;
36189;SDS011;22232;50.914;13.858;2024-02-16T00:48:05;12.40;;;6.70;;
36189;SDS011;22232;50.914;13.858;2024-02-16T00:50:34;16.45;;;8.85;;
36189;SDS011;22232;50.914;13.858;2024-02-16T00:53:02;13.20;;;8.50;;
36189;SDS011;22232;50.914;13.858;2024-02-16T00:55:31;12.88;;;8.40;;
36189;SDS011;22232;50.914;13.858;2024-02-16T00:57:58;14.27;;;7.93;;
36189;SDS011;22232;50.914;13.858;2024-02-16T01:00:26;11.52;;;7.32;;
36189;SDS011;22232;50.914;13.858;2024-02-16T01:02:53;14.57;;;8.20;;
36189;SDS011;22232;50.914;13.858;2024-02-16T01:05:21;13.48;;;8.00;;
36189;SDS011;22232;50.914;13.858;2024-02-16T01:07:50;14.00;;;8.13;;
36189;SDS011;22232;50.914;13.858;2024-02-16T01:10:17;14.45;;;7.82;;
36189;SDS011;22232;50.914;13.858;2024-02-16T01:12:45;15.15;;;8.82;;
36189;SDS011;22232;50.914;13.858;2024-02-16T01:15:12;14.05;;;8.73;;
36189;SDS011;22232;50.914;13.858;2024-02-16T01:17:40;17.25;;;9.50;;
36189;SDS011;22232;50.914;13.858;2024-02-16T01:20:08;16.08;;;9.82;;
36189;SDS011;22232;50.914;13.858;2024-02-16T01:22:40;17.40;;;10.13;;
36189;SDS011;22232;50.914;13.858;2024-02-16T01:25:08;18.25;;;10.77;;
36189;SDS011;22232;50.914;13.858;2024-02-16T01:27:35;17.20;;;10.13;;
36189;SDS011;22232;50.914;13.858;2024-02-16T01:30:03;16.67;;;9.95;;
36189;SDS011;22232;50.914;13.858;2024-02-16T01:32:31;16.73;;;10.57;;
36189;SDS011;22232;50.914;13.858;2024-02-16T01:34:59;15.50;;;10.02;;
36189;SDS011;22232;50.914;13.858;2024-02-16T01:37:27;21.42;;;10.35;;
36189;SDS011;22232;50.914;13.858;2024-02-16T01:39:54;20.52;;;10.80;;
36189;SDS011;22232;50.914;13.858;2024-02-16T01:42:22;17.67;;;10.35;;
36189;SDS011;22232;50.914;13.858;2024-02-16T01:44:50;19.80;;;10.82;;
36189;SDS011;22232;50.914;13.858;2024-02-16T01:47:18;18.13;;;11.05;;
36189;SDS011;22232;50.914;13.858;2024-02-16T01:49:46;19.27;;;10.77;;
36189;SDS011;22232;50.914;13.858;2024-02-16T01:52:14;17.88;;;10.27;;
36189;SDS011;22232;50.914;13.858;2024-02-16T01:54:42;19.38;;;11.52;;
36189;SDS011;22232;50.914;13.858;2024-02-16T01:57:09;19.98;;;11.10;;
36189;SDS011;22232;50.914;13.858;2024-02-16T01:59:38;21.40;;;11.32;;
36189;SDS011;22232;50.914;13.858;2024-02-16T02:02:07;18.65;;;10.63;;
36189;SDS011;22232;50.914;13.858;2024-02-16T02:04:35;22.48;;;12.10;;
36189;SDS011;22232;50.914;13.858;2024-02-16T02:07:13;22.80;;;11.63;;
36189;SDS011;22232;50.914;13.858;2024-02-16T02:09:42;20.80;;;11.88;;
36189;SDS011;22232;50.914;13.858;2024-02-16T02:12:10;22.55;;;11.73;;
36189;SDS011;22232;50.914;13.858;2024-02-16T02:14:38;21.85;;;12.48;;
36189;SDS011;22232;50.914;13.858;2024-02-16T02:17:05;20.95;;;12.25;;
36189;SDS011;22232;50.914;13.858;2024-02-16T02:19:33;26.60;;;12.80;;
36189;SDS011;22232;50.914;13.858;2024-02-16T02:22:02;22.10;;;12.93;;
36189;SDS011;22232;50.914;13.858;2024-02-16T02:24:29;24.17;;;12.25;;
36189;SDS011;22232;50.914;13.858;2024-02-16T02:26:57;22.15;;;11.82;;
36189;SDS011;22232;50.914;13.858;2024-02-16T02:29:25;21.90;;;12.30;;
36189;SDS011;22232;50.914;13.858;2024-02-16T02:31:53;21.75;;;12.43;;
36189;SDS011;22232;50.914;13.858;2024-02-16T02:34:21;23.42;;;13.57;;
36189;SDS011;22232;50.914;13.858;2024-02-16T02:36:49;23.50;;;12.98;;
36189;SDS011;22232;50.914;13.858;2024-02-16T02:39:17;20.50;;;12.05;;
36189;SDS011;22232;50.914;13.858;2024-02-16T02:41:44;25.25;;;13.48;;
36189;SDS011;22232;50.914;13.858;2024-02-16T02:44:12;23.00;;;12.57;;
36189;SDS011;22232;50.914;13.858;2024-02-16T02:46:40;26.40;;;14.13;;
36189;SDS011;22232;50.914;13.858;2024-02-16T02:49:08;28.20;;;14.48;;
36189;SDS011;22232;50.914;13.858;2024-02-16T02:51:35;25.02;;;13.73;;
36189;SDS011;22232;50.914;13.858;2024-02-16T02:54:03;26.05;;;14.40;;
36189;SDS011;22232;50.914;13.858;2024-02-16T02:56:31;26.08;;;13.93;;
36189;SDS011;22232;50.914;13.858;2024-02-16T02:58:59;30.13;;;14.73;;
36189;SDS011;22232;50.914;13.858;2024-02-16T03:01:26;25.80;;;13.77;;
36189;SDS011;22232;50.914;13.858;2024-02-16T03:03:54;26.42;;;14.57;;
36189;SDS011;22232;50.914;13.858;2024-02-16T03:06:22;26.67;;;13.68;;
36189;SDS011;22232;50.914;13.858;2024-02-16T03:08:50;26.63;;;14.52;;
36189;SDS011;22232;50.914;13.858;2024-02-16T03:11:18;25.85;;;13.70;;
36189;SDS011;22232;50.914;13.858;2024-02-16T03:13:46;29.80;;;15.18;;
36189;SDS011;22232;50.914;13.858;2024-02-16T03:16:13;25.05;;;14.35;;
36189;SDS011;22232;50.914;13.858;2024-02-16T03:18:41;26.15;;;14.35;;
36189;SDS011;22232;50.914;13.858;2024-02-16T03:21:12;26.48;;;14.35;;
36189;SDS011;22232;50.914;13.858;2024-02-16T03:23:44;22.73;;;13.95;;
36189;SDS011;22232;50.914;13.858;2024-02-16T03:26:18;23.95;;;13.57;;
36189;SDS011;22232;50.914;13.858;2024-02-16T03:28:47;25.83;;;13.90;;
36189;SDS011;22232;50.914;13.858;2024-02-16T03:31:16;20.65;;;11.88;;
36189;SDS011;22232;50.914;13.858;2024-02-16T03:33:44;28.00;;;14.98;;
36189;SDS011;22232;50.914;13.858;2024-02-16T03:36:12;25.02;;;13.98;;
36189;SDS011;22232;50.914;13.858;2024-02-16T03:38:42;28.77;;;15.55;;
36189;SDS011;22232;50.914;13.858;2024-02-16T03:41:13;29.75;;;16.13;;
36189;SDS011;22232;50.914;13.858;2024-02-16T03:43:42;27.60;;;15.50;;
36189;SDS011;22232;50.914;13.858;2024-02-16T03:46:10;28.80;;;15.57;;
36189;SDS011;22232;50.914;13.858;2024-02-16T03:48:38;27.83;;;16.73;;
36189;SDS011;22232;50.914;13.858;2024-02-16T03:51:07;32.42;;;17.80;;
36189;SDS011;22232;50.914;13.858;2024-02-16T03:53:34;32.35;;;17.02;;
36189;SDS011;22232;50.914;13.858;2024-02-16T03:56:02;29.85;;;17.00;;
36189;SDS011;22232;50.914;13.858;2024-02-16T03:58:30;33.05;;;17.67;;
36189;SDS011;22232;50.914;13.858;2024-02-16T04:00:58;27.65;;;16.67;;
36189;SDS011;22232;50.914;13.858;2024-02-16T04:03:26;30.48;;;16.77;;
36189;SDS011;22232;50.914;13.858;2024-02-16T04:05:54;29.80;;;17.23;;
36189;SDS011;22232;50.914;13.858;2024-02-16T04:08:21;30.42;;;17.75;;
36189;SDS011;22232;50.914;13.858;2024-02-16T04:10:49;30.27;;;17.92;;
36189;SDS011;22232;50.914;13.858;2024-02-16T04:13:17;29.17;;;17.27;;
36189;SDS011;22232;50.914;13.858;2024-02-16T04:15:44;32.92;;;18.35;;
36189;SDS011;22232;50.914;13.858;2024-02-16T04:18:12;29.42;;;17.13;;
36189;SDS011;22232;50.914;13.858;2024-02-16T04:20:40;31.25;;;18.23;;
36189;SDS011;22232;50.914;13.858;2024-02-16T04:23:08;30.20;;;17.98;;
36189;SDS011;22232;50.914;13.858;2024-02-16T04:25:35;30.42;;;17.88;;
36189;SDS011;22232;50.914;13.858;2024-02-16T04:28:03;32.90;;;19.10;;
36189;SDS011;22232;50.914;13.858;2024-02-16T04:30:31;30.15;;;17.35;;
36189;SDS011;22232;50.914;13.858;2024-02-16T04:32:58;31.77;;;18.73;;
36189;SDS011;22232;50.914;13.858;2024-02-16T04:35:26;32.10;;;19.63;;
36189;SDS011;22232;50.914;13.858;2024-02-16T04:37:54;33.25;;;18.77;;
36189;SDS011;22232;50.914;13.858;2024-02-16T04:40:21;35.53;;;19.33;;
36189;SDS011;22232;50.914;13.858;2024-02-16T04:42:49;38.28;;;21.10;;
36189;SDS011;22232;50.914;13.858;2024-02-16T04:45:16;38.83;;;21.15;;
36189;SDS011;22232;50.914;13.858;2024-02-16T04:47:44;39.50;;;23.23;;
36189;SDS011;22232;50.914;13.858;2024-02-16T04:50:12;42.38;;;22.35;;
36189;SDS011;22232;50.914;13.858;2024-02-16T04:52:41;39.08;;;23.17;;
36189;SDS011;22232;50.914;13.858;2024-02-16T04:55:08;44.40;;;24.33;;
36189;SDS011;22232;50.914;13.858;2024-02-16T04:57:36;42.53;;;23.30;;
36189;SDS011;22232;50.914;13.858;2024-02-16T05:00:03;42.20;;;24.58;;
36189;SDS011;22232;50.914;13.858;2024-02-16T05:02:31;43.63;;;24.85;;
36189;SDS011;22232;50.914;13.858;2024-02-16T05:04:59;43.47;;;24.13;;
36189;SDS011;22232;50.914;13.858;2024-02-16T05:07:30;45.53;;;24.95;;
36189;SDS011;22232;50.914;13.858;2024-02-16T05:10:03;44.85;;;24.65;;
36189;SDS011;22232;50.914;13.858;2024-02-16T05:12:35;47.15;;;25.20;;
36189;SDS011;22232;50.914;13.858;2024-02-16T05:15:04;43.65;;;23.65;;
36189;SDS011;22232;50.914;13.858;2024-02-16T05:17:33;42.50;;;23.58;;
36189;SDS011;22232;50.914;13.858;2024-02-16T05:20:00;45.80;;;24.42;;
36189;SDS011;22232;50.914;13.858;2024-02-16T05:22:28;43.88;;;23.85;;
36189;SDS011;22232;50.914;13.858;2024-02-16T05:24:56;41.70;;;22.67;;
36189;SDS011;22232;50.914;13.858;2024-02-16T05:27:24;44.30;;;23.30;;
36189;SDS011;22232;50.914;13.858;2024-02-16T05:29:51;44.53;;;22.90;;
36189;SDS011;22232;50.914;13.858;2024-02-16T05:32:19;42.10;;;21.85;;
36189;SDS011;22232;50.914;13.858;2024-02-16T05:34:46;42.63;;;21.85;;
36189;SDS011;22232;50.914;13.858;2024-02-16T05:37:16;40.63;;;23.05;;
36189;SDS011;22232;50.914;13.858;2024-02-16T05:39:43;37.10;;;20.60;;
36189;SDS011;22232;50.914;13.858;2024-02-16T05:42:35;39.17;;;22.15;;
36189;SDS011;22232;50.914;13.858;2024-02-16T05:45:03;39.13;;;21.02;;
36189;SDS011;22232;50.914;13.858;2024-02-16T05:47:33;36.55;;;21.00;;
36189;SDS011;22232;50.914;13.858;2024-02-16T05:50:00;36.28;;;20.75;;
36189;SDS011;22232;50.914;13.858;2024-02-16T05:52:28;39.85;;;21.92;;
36189;SDS011;22232;50.914;13.858;2024-02-16T05:54:57;37.78;;;21.27;;
36189;SDS011;22232;50.914;13.858;2024-02-16T05:57:25;39.70;;;22.35;;
36189;SDS011;22232;50.914;13.858;2024-02-16T05:59:52;40.78;;;22.45;;
36189;SDS011;22232;50.914;13.858;2024-02-16T06:02:23;38.85;;;21.08;;
36189;SDS011;22232;50.914;13.858;2024-02-16T06:04:53;38.00;;;21.00;;
36189;SDS011;22232;50.914;13.858;2024-02-16T06:07:21;37.00;;;20.88;;
36189;SDS011;22232;50.914;13.858;2024-02-16T06:09:49;35.83;;;19.80;;
36189;SDS011;22232;50.914;13.858;2024-02-16T06:12:17;36.85;;;21.05;;
36189;SDS011;22232;50.914;13.858;2024-02-16T06:14:45;37.95;;;22.30;;
36189;SDS011;22232;50.914;13.858;2024-02-16T06:17:12;37.55;;;22.15;;
36189;SDS011;22232;50.914;13.858;2024-02-16T06:19:41;37.03;;;21.30;;
36189;SDS011;22232;50.914;13.858;2024-02-16T06:22:10;34.90;;;21.45;;
36189;SDS011;22232;50.914;13.858;2024-02-16T06:24:38;37.47;;;22.27;;
36189;SDS011;22232;50.914;13.858;2024-02-16T06:27:05;37.83;;;21.92;;
36189;SDS011;22232;50.914;13.858;2024-02-16T06:29:35;37.53;;;21.35;;
36189;SDS011;22232;50.914;13.858;2024-02-16T06:32:02;37.83;;;21.98;;
36189;SDS011;22232;50.914;13.858;2024-02-16T06:34:30;35.17;;;21.38;;
36189;SDS011;22232;50.914;13.858;2024-02-16T06:36:58;37.25;;;22.02;;
36189;SDS011;22232;50.914;13.858;2024-02-16T06:39:26;37.03;;;21.75;;
36189;SDS011;22232;50.914;13.858;2024-02-16T06:41:53;39.55;;;21.83;;
36189;SDS011;22232;50.914;13.858;2024-02-16T06:44:21;40.47;;;22.48;;
36189;SDS011;22232;50.914;13.858;2024-02-16T06:46:50;37.97;;;21.45;;
36189;SDS011;22232;50.914;13.858;2024-02-16T06:49:18;37.65;;;22.02;;
36189;SDS011;22232;50.914;13.858;2024-02-16T06:51:46;41.42;;;22.13;;
36189;SDS011;22232;50.914;13.858;2024-02-16T06:54:13;37.20;;;20.95;;
36189;SDS011;22232;50.914;13.858;2024-02-16T06:56:41;36.15;;;19.92;;
36189;SDS011;22232;50.914;13.858;2024-02-16T06:59:09;36.50;;;20.58;;
36189;SDS011;22232;50.914;13.858;2024-02-16T07:01:37;41.80;;;21.58;;
36189;SDS011;22232;50.914;13.858;2024-02-16T07:04:04;37.78;;;21.10;;
36189;SDS011;22232;50.914;13.858;2024-02-16T07:06:32;33.15;;;20.30;;
36189;SDS011;22232;50.914;13.858;2024-02-16T07:09:00;36.80;;;20.20;;
36189;SDS011;22232;50.914;13.858;2024-02-16T07:11:29;34.80;;;20.75;;
36189;SDS011;22232;50.914;13.858;2024-02-16T07:13:57;33.67;;;18.45;;
36189;SDS011;22232;50.914;13.858;2024-02-16T07:16:26;30.60;;;18.52;;
36189;SDS011;22232;50.914;13.858;2024-02-16T07:18:54;30.17;;;18.08;;
36189;SDS011;22232;50.914;13.858;2024-02-16T07:21:21;27.25;;;16.63;;
36189;SDS011;22232;50.914;13.858;2024-02-16T07:23:50;29.67;;;17.27;;
36189;SDS011;22232;50.914;13.858;2024-02-16T07:26:18;27.88;;;16.98;;
36189;SDS011;22232;50.914;13.858;2024-02-16T07:28:46;29.10;;;17.13;;
36189;SDS011;22232;50.914;13.858;2024-02-16T07:31:13;27.40;;;16.88;;
36189;SDS011;22232;50.914;13.858;2024-02-16T07:33:44;24.65;;;14.52;;
36189;SDS011;22232;50.914;13.858;2024-02-16T07:36:11;25.17;;;15.43;;
36189;SDS011;22232;50.914;13.858;2024-02-16T07:38:41;25.65;;;15.32;;
36189;SDS011;22232;50.914;13.858;2024-02-16T07:41:09;23.23;;;14.35;;
36189;SDS011;22232;50.914;13.858;2024-02-16T07:43:37;25.65;;;14.88;;
36189;SDS011;22232;50.914;13.858;2024-02-16T07:46:05;24.50;;;14.20;;
36189;SDS011;22232;50.914;13.858;2024-02-16T07:48:35;23.95;;;14.45;;
36189;SDS011;22232;50.914;13.858;2024-02-16T07:51:03;20.60;;;13.50;;
36189;SDS011;22232;50.914;13.858;2024-02-16T07:53:31;24.30;;;15.48;;
36189;SDS011;22232;50.914;13.858;2024-02-16T07:55:58;22.60;;;13.88;;
36189;SDS011;22232;50.914;13.858;2024-02-16T07:58:26;22.25;;;14.25;;
36189;SDS011;22232;50.914;13.858;2024-02-16T08:00:53;21.30;;;14.00;;
36189;SDS011;22232;50.914;13.858;2024-02-16T08:03:22;22.58;;;13.70;;
36189;SDS011;22232;50.914;13.858;2024-02-16T08:05:50;24.67;;;15.23;;
36189;SDS011;22232;50.914;13.858;2024-02-16T08:08:18;25.25;;;15.57;;
36189;SDS011;22232;50.914;13.858;2024-02-16T08:10:45;25.83;;;14.73;;
36189;SDS011;22232;50.914;13.858;2024-02-16T08:13:13;24.77;;;15.35;;
36189;SDS011;22232;50.914;13.858;2024-02-16T08:15:41;24.92;;;15.27;;
36189;SDS011;22232;50.914;13.858;2024-02-16T08:18:08;30.10;;;16.65;;
36189;SDS011;22232;50.914;13.858;2024-02-16T08:20:39;26.88;;;16.27;;
36189;SDS011;22232;50.914;13.858;2024-02-16T08:26:18;27.77;;;16.48;;
36189;SDS011;22232;50.914;13.858;2024-02-16T08:29:08;27.65;;;16.98;;
36189;SDS011;22232;50.914;13.858;2024-02-16T08:31:52;29.52;;;16.58;;
36189;SDS011;22232;50.914;13.858;2024-02-16T08:34:34;31.13;;;18.35;;
36189;SDS011;22232;50.914;13.858;2024-02-16T08:37:09;27.33;;;16.45;;
36189;SDS011;22232;50.914;13.858;2024-02-16T08:39:58;27.13;;;16.40;;
36189;SDS011;22232;50.914;13.858;2024-02-16T08:42:32;28.98;;;17.00;;
36189;SDS011;22232;50.914;13.858;2024-02-16T08:45:08;27.45;;;17.13;;
36189;SDS011;22232;50.914;13.858;2024-02-16T08:47:37;29.10;;;17.02;;
36189;SDS011;22232;50.914;13.858;2024-02-16T08:50:06;29.48;;;17.48;;
36189;SDS011;22232;50.914;13.858;2024-02-16T08:52:34;26.70;;;16.73;;
36189;SDS011;22232;50.914;13.858;2024-02-16T08:55:02;28.38;;;16.92;;
36189;SDS011;22232;50.914;13.858;2024-02-16T08:57:31;28.05;;;16.88;;
36189;SDS011;22232;50.914;13.858;2024-02-16T08:59:59;27.85;;;17.95;;
36189;SDS011;22232;50.914;13.858;2024-02-16T09:02:27;25.48;;;16.48;;
36189;SDS011;22232;50.914;13.858;2024-02-16T09:04:54;28.42;;;17.42;;
36189;SDS011;22232;50.914;13.858;2024-02-16T09:07:22;23.60;;;15.18;;
36189;SDS011;22232;50.914;13.858;2024-02-16T09:09:51;26.00;;;17.08;;
36189;SDS011;22232;50.914;13.858;2024-02-16T09:12:20;25.17;;;16.52;;
36189;SDS011;22232;50.914;13.858;2024-02-16T09:14:47;26.70;;;16.52;;
36189;SDS011;22232;50.914;13.858;2024-02-16T09:17:15;23.73;;;15.70;;
36189;SDS011;22232;50.914;13.858;2024-02-16T09:19:43;22.42;;;14.13;;
36189;SDS011;22232;50.914;13.858;2024-02-16T09:22:10;23.48;;;14.63;;
36189;SDS011;22232;50.914;13.858;2024-02-16T09:24:38;24.17;;;14.57;;
36189;SDS011;22232;50.914;13.858;2024-02-16T09:27:08;24.60;;;14.27;;
36189;SDS011;22232;50.914;13.858;2024-02-16T09:29:37;21.80;;;13.90;;
36189;SDS011;22232;50.914;13.858;2024-02-16T09:32:05;22.23;;;13.77;;
36189;SDS011;22232;50.914;13.858;2024-02-16T09:34:33;23.33;;;14.75;;
36189;SDS011;22232;50.914;13.858;2024-02-16T09:37:02;23.20;;;14.88;;
36189;SDS011;22232;50.914;13.858;2024-02-16T09:39:30;21.35;;;14.07;;
36189;SDS011;22232;50.914;13.858;2024-02-16T09:41:58;22.45;;;13.93;;
36189;SDS011;22232;50.914;13.858;2024-02-16T09:44:26;23.25;;;14.00;;
36189;SDS011;22232;50.914;13.858;2024-02-16T09:46:55;20.42;;;13.27;;
36189;SDS011;22232;50.914;13.858;2024-02-16T09:49:24;23.90;;;14.35;;
36189;SDS011;22232;50.914;13.858;2024-02-16T09:52:04;25.88;;;14.73;;
36189;SDS011;22232;50.914;13.858;2024-02-16T09:54:38;22.98;;;14.73;;
36189;SDS011;22232;50.914;13.858;2024-02-16T09:57:06;24.92;;;15.13;;
36189;SDS011;22232;50.914;13.858;2024-02-16T09:59:34;25.45;;;15.10;;
36189;SDS011;22232;50.914;13.858;2024-02-16T10:02:03;22.33;;;15.07;;
36189;SDS011;22232;50.914;13.858;2024-02-16T10:04:34;24.23;;;15.20;;
36189;SDS011;22232;50.914;13.858;2024-02-16T10:07:04;23.83;;;15.55;;
36189;SDS011;22232;50.914;13.858;2024-02-16T10:09:39;23.60;;;15.25;;
36189;SDS011;22232;50.914;13.858;2024-02-16T10:12:10;22.52;;;14.50;;
36189;SDS011;22232;50.914;13.858;2024-02-16T10:14:38;24.02;;;14.85;;
36189;SDS011;22232;50.914;13.858;2024-02-16T10:17:08;22.23;;;13.52;;
36189;SDS011;22232;50.914;13.858;2024-02-16T10:19:37;24.58;;;15.43;;
36189;SDS011;22232;50.914;13.858;2024-02-16T10:22:10;24.73;;;15.98;;
36189;SDS011;22232;50.914;13.858;2024-02-16T10:24:39;24.58;;;15.68;;
36189;SDS011;22232;50.914;13.858;2024-02-16T10:27:17;25.35;;;16.08;;
36189;SDS011;22232;50.914;13.858;2024-02-16T10:29:49;25.67;;;16.75;;
36189;SDS011;22232;50.914;13.858;2024-02-16T10:32:21;26.33;;;17.13;;
36189;SDS011;22232;50.914;13.858;2024-02-16T10:34:50;25.77;;;17.02;;
36189;SDS011;22232;50.914;13.858;2024-02-16T10:37:19;28.92;;;17.50;;
36189;SDS011;22232;50.914;13.858;2024-02-16T10:39:48;26.88;;;16.70;;
36189;SDS011;22232;50.914;13.858;2024-02-16T10:42:17;25.45;;;15.60;;
36189;SDS011;22232;50.914;13.858;2024-02-16T10:44:47;24.80;;;15.85;;
36189;SDS011;22232;50.914;13.858;2024-02-16T10:47:15;25.70;;;15.90;;
36189;SDS011;22232;50.914;13.858;2024-02-16T10:49:42;23.52;;;15.07;;
36189;SDS011;22232;50.914;13.858;2024-02-16T10:52:11;24.52;;;15.25;;
36189;SDS011;22232;50.914;13.858;2024-02-16T10:54:41;23.42;;;14.48;;
36189;SDS011;22232;50.914;13.858;2024-02-16T10:57:10;23.83;;;15.00;;
36189;SDS011;22232;50.914;13.858;2024-02-16T10:59:41;22.30;;;14.68;;
36189;SDS011;22232;50.914;13.858;2024-02-16T11:02:15;26.30;;;15.80;;
36189;SDS011;22232;50.914;13.858;2024-02-16T11:04:45;27.25;;;16.10;;
36189;SDS011;22232;50.914;13.858;2024-02-16T11:07:17;24.48;;;16.23;;
36189;SDS011;22232;50.914;13.858;2024-02-16T11:09:46;25.85;;;15.20;;
36189;SDS011;22232;50.914;13.858;2024-02-16T11:12:15;23.13;;;14.98;;
36189;SDS011;22232;50.914;13.858;2024-02-16T11:14:47;23.23;;;15.23;;
36189;SDS011;22232;50.914;13.858;2024-02-16T11:17:24;23.52;;;14.38;;
36189;SDS011;22232;50.914;13.858;2024-02-16T11:19:54;23.08;;;14.60;;
36189;SDS011;22232;50.914;13.858;2024-02-16T11:22:22;21.85;;;14.27;;
36189;SDS011;22232;50.914;13.858;2024-02-16T11:24:55;22.58;;;14.27;;
36189;SDS011;22232;50.914;13.858;2024-02-16T11:27:28;23.02;;;15.00;;
36189;SDS011;22232;50.914;13.858;2024-02-16T11:29:59;20.27;;;13.38;;
36189;SDS011;22232;50.914;13.858;2024-02-16T11:32:32;23.95;;;15.13;;
36189;SDS011;22232;50.914;13.858;2024-02-16T11:35:05;22.52;;;14.32;;
36189;SDS011;22232;50.914;13.858;2024-02-16T11:37:36;22.40;;;14.05;;
36189;SDS011;22232;50.914;13.858;2024-02-16T11:40:05;21.40;;;14.13;;
36189;SDS011;22232;50.914;13.858;2024-02-16T11:42:36;24.10;;;16.48;;
36189;SDS011;22232;50.914;13.858;2024-02-16T11:45:04;26.10;;;16.58;;
36189;SDS011;22232;50.914;13.858;2024-02-16T11:47:33;23.67;;;15.60;;
36189;SDS011;22232;50.914;13.858;2024-02-16T11:50:02;25.17;;;17.33;;
36189;SDS011;22232;50.914;13.858;2024-02-16T11:52:40;26.95;;;17.15;;
36189;SDS011;22232;50.914;13.858;2024-02-16T11:55:08;27.00;;;17.75;;
36189;SDS011;22232;50.914;13.858;2024-02-16T11:57:37;23.23;;;16.55;;
36189;SDS011;22232;50.914;13.858;2024-02-16T12:00:06;23.75;;;15.85;;
36189;SDS011;22232;50.914;13.858;2024-02-16T12:02:36;26.52;;;17.25;;
36189;SDS011;22232;50.914;13.858;2024-02-16T12:05:04;24.75;;;16.25;;
36189;SDS011;22232;50.914;13.858;2024-02-16T12:07:33;24.48;;;16.23;;
36189;SDS011;22232;50.914;13.858;2024-02-16T12:10:05;33.75;;;16.38;;
36189;SDS011;22232;50.914;13.858;2024-02-16T12:12:34;24.33;;;15.40;;
36189;SDS011;22232;50.914;13.858;2024-02-16T12:15:03;23.20;;;14.95;;
36189;SDS011;22232;50.914;13.858;2024-02-16T12:17:33;22.98;;;15.23;;
36189;SDS011;22232;50.914;13.858;2024-02-16T12:20:01;24.33;;;15.93;;
36189;SDS011;22232;50.914;13.858;2024-02-16T12:22:30;23.90;;;15.75;;
36189;SDS011;22232;50.914;13.858;2024-02-16T12:24:57;25.83;;;16.38;;
36189;SDS011;22232;50.914;13.858;2024-02-16T12:27:29;27.33;;;18.33;;
36189;SDS011;22232;50.914;13.858;2024-02-16T12:29:57;28.50;;;17.58;;
36189;SDS011;22232;50.914;13.858;2024-02-16T12:32:24;27.30;;;17.40;;
36189;SDS011;22232;50.914;13.858;2024-02-16T12:34:52;29.08;;;17.17;;
36189;SDS011;22232;50.914;13.858;2024-02-16T12:37:20;29.48;;;17.83;;
36189;SDS011;22232;50.914;13.858;2024-02-16T12:39:49;26.15;;;17.23;;
36189;SDS011;22232;50.914;13.858;2024-02-16T12:42:16;25.67;;;17.10;;
36189;SDS011;22232;50.914;13.858;2024-02-16T12:44:44;26.42;;;16.98;;
36189;SDS011;22232;50.914;13.858;2024-02-16T12:47:12;26.75;;;16.98;;
36189;SDS011;22232;50.914;13.858;2024-02-16T12:49:41;25.95;;;15.73;;
36189;SDS011;22232;50.914;13.858;2024-02-16T12:52:08;21.42;;;14.50;;
36189;SDS011;22232;50.914;13.858;2024-02-16T12:54:36;23.00;;;15.00;;
36189;SDS011;22232;50.914;13.858;2024-02-16T12:57:04;24.55;;;15.45;;
36189;SDS011;22232;50.914;13.858;2024-02-16T12:59:39;21.75;;;13.82;;
36189;SDS011;22232;50.914;13.858;2024-02-16T13:02:07;21.58;;;14.20;;
36189;SDS011;22232;50.914;13.858;2024-02-16T13:04:34;19.35;;;13.35;;
36189;SDS011;22232;50.914;13.858;2024-02-16T13:07:02;20.70;;;14.23;;
36189;SDS011;22232;50.914;13.858;2024-02-16T13:09:30;23.77;;;15.15;;
36189;SDS011;22232;50.914;13.858;2024-02-16T13:11:58;20.58;;;13.98;;
36189;SDS011;22232;50.914;13.858;2024-02-16T13:14:26;24.85;;;14.85;;
36189;SDS011;22232;50.914;13.858;2024-02-16T13:16:54;22.98;;;14.32;;
36189;SDS011;22232;50.914;13.858;2024-02-16T13:19:21;23.38;;;14.55;;
36189;SDS011;22232;50.914;13.858;2024-02-16T13:21:49;25.27;;;14.57;;
36189;SDS011;22232;50.914;13.858;2024-02-16T13:24:18;23.45;;;14.00;;
36189;SDS011;22232;50.914;13.858;2024-02-16T13:26:46;26.55;;;15.05;;
36189;SDS011;22232;50.914;13.858;2024-02-16T13:29:13;24.80;;;14.68;;
36189;SDS011;22232;50.914;13.858;2024-02-16T13:31:41;25.45;;;15.40;;
36189;SDS011;22232;50.914;13.858;2024-02-16T13:34:09;25.63;;;15.43;;
36189;SDS011;22232;50.914;13.858;2024-02-16T13:36:37;27.38;;;17.42;;
36189;SDS011;22232;50.914;13.858;2024-02-16T13:39:05;32.35;;;18.05;;
36189;SDS011;22232;50.914;13.858;2024-02-16T13:41:32;28.95;;;17.50;;
36189;SDS011;22232;50.914;13.858;2024-02-16T13:44:01;29.73;;;17.38;;
36189;SDS011;22232;50.914;13.858;2024-02-16T13:46:28;29.13;;;17.90;;
36189;SDS011;22232;50.914;13.858;2024-02-16T13:48:56;31.05;;;18.13;;
36189;SDS011;22232;50.914;13.858;2024-02-16T13:51:24;30.80;;;18.42;;
36189;SDS011;22232;50.914;13.858;2024-02-16T13:53:52;31.92;;;18.40;;
36189;SDS011;22232;50.914;13.858;2024-02-16T13:56:20;32.85;;;19.33;;
36189;SDS011;22232;50.914;13.858;2024-02-16T13:58:48;34.40;;;19.00;;
36189;SDS011;22232;50.914;13.858;2024-02-16T14:01:15;31.27;;;18.75;;
36189;SDS011;22232;50.914;13.858;2024-02-16T14:03:43;31.58;;;18.85;;
36189;SDS011;22232;50.914;13.858;2024-02-16T14:06:11;32.63;;;19.25;;
36189;SDS011;22232;50.914;13.858;2024-02-16T14:08:39;33.38;;;19.33;;
36189;SDS011;22232;50.914;13.858;2024-02-16T14:11:06;30.13;;;18.10;;
36189;SDS011;22232;50.914;13.858;2024-02-16T14:13:36;32.70;;;18.58;;
36189;SDS011;22232;50.914;13.858;2024-02-16T14:16:03;33.15;;;19.17;;
36189;SDS011;22232;50.914;13.858;2024-02-16T14:18:31;32.28;;;18.70;;
36189;SDS011;22232;50.914;13.858;2024-02-16T14:21:02;32.25;;;18.77;;
36189;SDS011;22232;50.914;13.858;2024-02-16T14:23:30;30.75;;;17.67;;
36189;SDS011;22232;50.914;13.858;2024-02-16T14:25:59;30.38;;;18.40;;